sensor_id;sensor_type;location;lat;lon;timestamp;P1;durP1;ratioP1;P2;durP2;ratioP2
2041;SDS011;1026;51.460;7.252;2022-07-10T00:02:03;0.80;;;0.80;;
2041;SDS011;1026;51.460;7.252;2022-07-10T00:04:29;1.20;;;1.10;;
2041;SDS011;1026;51.460;7.252;2022-07-10T00:06:54;1.20;;;1.00;;
2041;SDS011;1026;51.460;7.252;2022-07-10T00:09:21;1.40;;;0.90;;
2041;SDS011;1026;51.460;7.252;2022-07-10T00:11:47;1.47;;;1.00;;
2041;SDS011;1026;51.460;7.252;2022-07-10T00:14:13;1.83;;;1.10;;
2041;SDS011;1026;51.460;7.252;2022-07-10T00:16:38;1.70;;;0.97;;
2041;SDS011;1026;51.460;7.252;2022-07-10T00:19:04;1.20;;;0.93;;
2041;SDS011;1026;51.460;7.252;2022-07-10T00:21:29;1.20;;;0.90;;
2041;SDS011;1026;51.460;7.252;2022-07-10T00:23:55;1.10;;;1.00;;
2041;SDS011;1026;51.460;7.252;2022-07-10T00:26:21;1.10;;;1.03;;
2041;SDS011;1026;51.460;7.252;2022-07-10T00:28:46;2.40;;;1.27;;
2041;SDS011;1026;51.460;7.252;2022-07-10T00:31:12;2.77;;;1.30;;
2041;SDS011;1026;51.460;7.252;2022-07-10T00:33:38;1.43;;;1.00;;
2041;SDS011;1026;51.460;7.252;2022-07-10T00:36:04;4.00;;;1.57;;
2041;SDS011;1026;51.460;7.252;2022-07-10T00:38:30;3.73;;;1.40;;
2041;SDS011;1026;51.460;7.252;2022-07-10T00:40:56;4.13;;;1.20;;
2041;SDS011;1026;51.460;7.252;2022-07-10T00:43:22;1.43;;;1.00;;
2041;SDS011;1026;51.460;7.252;2022-07-10T00:45:48;2.80;;;1.17;;
2041;SDS011;1026;51.460;7.252;2022-07-10T00:48:14;1.83;;;1.47;;
2041;SDS011;1026;51.460;7.252;2022-07-10T00:50:40;2.03;;;0.90;;
2041;SDS011;1026;51.460;7.252;2022-07-10T00:53:08;1.10;;;1.00;;
2041;SDS011;1026;51.460;7.252;2022-07-10T00:55:35;1.53;;;1.30;;
2041;SDS011;1026;51.460;7.252;2022-07-10T00:58:02;1.60;;;1.30;;
2041;SDS011;1026;51.460;7.252;2022-07-10T01:00:32;1.40;;;1.30;;
2041;SDS011;1026;51.460;7.252;2022-07-10T01:02:59;0.80;;;0.80;;
2041;SDS011;1026;51.460;7.252;2022-07-10T01:05:25;1.47;;;0.83;;
2041;SDS011;1026;51.460;7.252;2022-07-10T01:07:50;1.00;;;0.80;;
2041;SDS011;1026;51.460;7.252;2022-07-10T01:10:16;1.00;;;0.83;;
2041;SDS011;1026;51.460;7.252;2022-07-10T01:12:42;1.10;;;0.90;;
2041;SDS011;1026;51.460;7.252;2022-07-10T01:15:08;0.80;;;0.80;;
2041;SDS011;1026;51.460;7.252;2022-07-10T01:17:35;3.17;;;0.93;;
2041;SDS011;1026;51.460;7.252;2022-07-10T01:20:05;1.50;;;1.10;;
2041;SDS011;1026;51.460;7.252;2022-07-10T01:22:32;0.80;;;0.80;;
2041;SDS011;1026;51.460;7.252;2022-07-10T01:24:58;2.57;;;1.00;;
2041;SDS011;1026;51.460;7.252;2022-07-10T01:27:23;1.33;;;0.70;;
2041;SDS011;1026;51.460;7.252;2022-07-10T01:29:49;1.10;;;1.00;;
2041;SDS011;1026;51.460;7.252;2022-07-10T01:32:16;0.67;;;0.67;;
2041;SDS011;1026;51.460;7.252;2022-07-10T01:34:42;0.63;;;0.60;;
2041;SDS011;1026;51.460;7.252;2022-07-10T01:37:07;1.17;;;0.80;;
2041;SDS011;1026;51.460;7.252;2022-07-10T01:39:33;0.87;;;0.87;;
2041;SDS011;1026;51.460;7.252;2022-07-10T01:41:58;1.30;;;0.80;;
2041;SDS011;1026;51.460;7.252;2022-07-10T01:44:24;1.80;;;0.93;;
2041;SDS011;1026;51.460;7.252;2022-07-10T01:46:50;1.60;;;1.00;;
2041;SDS011;1026;51.460;7.252;2022-07-10T01:49:15;0.70;;;0.70;;
2041;SDS011;1026;51.460;7.252;2022-07-10T01:51:41;0.87;;;0.87;;
2041;SDS011;1026;51.460;7.252;2022-07-10T01:54:08;0.97;;;0.50;;
2041;SDS011;1026;51.460;7.252;2022-07-10T01:56:34;2.37;;;1.10;;
2041;SDS011;1026;51.460;7.252;2022-07-10T01:59:00;1.57;;;0.77;;
2041;SDS011;1026;51.460;7.252;2022-07-10T02:01:28;0.97;;;0.93;;
2041;SDS011;1026;51.460;7.252;2022-07-10T02:03:53;1.13;;;1.00;;
2041;SDS011;1026;51.460;7.252;2022-07-10T02:06:34;0.73;;;0.73;;
2041;SDS011;1026;51.460;7.252;2022-07-10T02:09:00;2.43;;;1.00;;
2041;SDS011;1026;51.460;7.252;2022-07-10T02:11:26;1.43;;;0.93;;
2041;SDS011;1026;51.460;7.252;2022-07-10T02:13:51;3.67;;;0.80;;
2041;SDS011;1026;51.460;7.252;2022-07-10T02:16:17;1.17;;;0.87;;
2041;SDS011;1026;51.460;7.252;2022-07-10T02:18:43;0.77;;;0.73;;
2041;SDS011;1026;51.460;7.252;2022-07-10T02:21:08;1.50;;;0.67;;
2041;SDS011;1026;51.460;7.252;2022-07-10T02:23:34;1.00;;;0.70;;
2041;SDS011;1026;51.460;7.252;2022-07-10T02:26:01;1.10;;;1.00;;
2041;SDS011;1026;51.460;7.252;2022-07-10T02:28:27;5.17;;;0.70;;
2041;SDS011;1026;51.460;7.252;2022-07-10T02:30:53;1.40;;;0.70;;
2041;SDS011;1026;51.460;7.252;2022-07-10T02:33:19;4.87;;;1.87;;
2041;SDS011;1026;51.460;7.252;2022-07-10T02:35:45;1.20;;;1.00;;
2041;SDS011;1026;51.460;7.252;2022-07-10T02:38:10;2.00;;;0.70;;
2041;SDS011;1026;51.460;7.252;2022-07-10T02:40:36;1.60;;;1.03;;
2041;SDS011;1026;51.460;7.252;2022-07-10T02:43:02;1.80;;;1.00;;
2041;SDS011;1026;51.460;7.252;2022-07-10T02:45:27;1.10;;;0.80;;
2041;SDS011;1026;51.460;7.252;2022-07-10T02:47:53;2.00;;;0.97;;
2041;SDS011;1026;51.460;7.252;2022-07-10T02:50:18;2.23;;;1.20;;
2041;SDS011;1026;51.460;7.252;2022-07-10T02:52:44;1.03;;;0.70;;
2041;SDS011;1026;51.460;7.252;2022-07-10T02:55:09;1.27;;;0.60;;
2041;SDS011;1026;51.460;7.252;2022-07-10T02:57:35;1.03;;;0.90;;
2041;SDS011;1026;51.460;7.252;2022-07-10T03:00:01;0.70;;;0.70;;
2041;SDS011;1026;51.460;7.252;2022-07-10T03:02:27;1.17;;;1.03;;
2041;SDS011;1026;51.460;7.252;2022-07-10T03:04:52;0.70;;;0.70;;
2041;SDS011;1026;51.460;7.252;2022-07-10T03:07:18;1.07;;;0.77;;
2041;SDS011;1026;51.460;7.252;2022-07-10T03:09:43;1.73;;;0.80;;
2041;SDS011;1026;51.460;7.252;2022-07-10T03:12:09;1.30;;;0.70;;
2041;SDS011;1026;51.460;7.252;2022-07-10T03:14:35;1.73;;;0.90;;
2041;SDS011;1026;51.460;7.252;2022-07-10T03:17:00;0.70;;;0.70;;
2041;SDS011;1026;51.460;7.252;2022-07-10T03:19:26;1.30;;;0.97;;
2041;SDS011;1026;51.460;7.252;2022-07-10T03:21:52;1.50;;;1.40;;
2041;SDS011;1026;51.460;7.252;2022-07-10T03:24:17;1.03;;;0.70;;
2041;SDS011;1026;51.460;7.252;2022-07-10T03:26:43;0.70;;;0.70;;
2041;SDS011;1026;51.460;7.252;2022-07-10T03:29:09;1.00;;;0.80;;
2041;SDS011;1026;51.460;7.252;2022-07-10T03:31:35;0.80;;;0.80;;
2041;SDS011;1026;51.460;7.252;2022-07-10T03:34:01;1.30;;;0.70;;
2041;SDS011;1026;51.460;7.252;2022-07-10T03:36:26;0.90;;;0.80;;
2041;SDS011;1026;51.460;7.252;2022-07-10T03:38:52;1.10;;;0.80;;
2041;SDS011;1026;51.460;7.252;2022-07-10T03:41:18;0.77;;;0.60;;
2041;SDS011;1026;51.460;7.252;2022-07-10T03:43:44;0.90;;;0.80;;
2041;SDS011;1026;51.460;7.252;2022-07-10T03:46:09;1.00;;;0.90;;
2041;SDS011;1026;51.460;7.252;2022-07-10T03:48:36;2.00;;;1.23;;
2041;SDS011;1026;51.460;7.252;2022-07-10T03:51:01;2.33;;;0.90;;
2041;SDS011;1026;51.460;7.252;2022-07-10T03:53:27;2.00;;;0.77;;
2041;SDS011;1026;51.460;7.252;2022-07-10T03:55:53;1.50;;;1.40;;
2041;SDS011;1026;51.460;7.252;2022-07-10T03:58:19;1.50;;;0.80;;
2041;SDS011;1026;51.460;7.252;2022-07-10T04:00:45;1.10;;;1.00;;
2041;SDS011;1026;51.460;7.252;2022-07-10T04:03:11;0.93;;;0.83;;
2041;SDS011;1026;51.460;7.252;2022-07-10T04:05:38;2.70;;;1.00;;
2041;SDS011;1026;51.460;7.252;2022-07-10T04:08:04;1.70;;;0.90;;
2041;SDS011;1026;51.460;7.252;2022-07-10T04:10:31;0.73;;;0.67;;
2041;SDS011;1026;51.460;7.252;2022-07-10T04:12:57;0.90;;;0.80;;
2041;SDS011;1026;51.460;7.252;2022-07-10T04:15:22;1.00;;;0.80;;
2041;SDS011;1026;51.460;7.252;2022-07-10T04:17:49;1.13;;;0.97;;
2041;SDS011;1026;51.460;7.252;2022-07-10T04:20:15;1.20;;;1.03;;
2041;SDS011;1026;51.460;7.252;2022-07-10T04:22:42;1.33;;;0.87;;
2041;SDS011;1026;51.460;7.252;2022-07-10T04:25:08;1.87;;;0.87;;
2041;SDS011;1026;51.460;7.252;2022-07-10T04:27:34;0.90;;;0.80;;
2041;SDS011;1026;51.460;7.252;2022-07-10T04:30:00;1.60;;;0.90;;
2041;SDS011;1026;51.460;7.252;2022-07-10T04:32:27;1.50;;;0.93;;
2041;SDS011;1026;51.460;7.252;2022-07-10T04:34:53;1.83;;;0.90;;
2041;SDS011;1026;51.460;7.252;2022-07-10T04:37:19;0.70;;;0.70;;
2041;SDS011;1026;51.460;7.252;2022-07-10T04:39:45;1.70;;;0.90;;
2041;SDS011;1026;51.460;7.252;2022-07-10T04:42:10;1.50;;;1.20;;
2041;SDS011;1026;51.460;7.252;2022-07-10T04:44:36;0.80;;;0.70;;
2041;SDS011;1026;51.460;7.252;2022-07-10T04:47:03;0.97;;;0.70;;
2041;SDS011;1026;51.460;7.252;2022-07-10T04:49:29;2.40;;;1.00;;
2041;SDS011;1026;51.460;7.252;2022-07-10T04:51:55;2.50;;;0.83;;
2041;SDS011;1026;51.460;7.252;2022-07-10T04:54:22;0.73;;;0.73;;
2041;SDS011;1026;51.460;7.252;2022-07-10T04:56:48;0.70;;;0.70;;
2041;SDS011;1026;51.460;7.252;2022-07-10T04:59:13;1.60;;;0.90;;
2041;SDS011;1026;51.460;7.252;2022-07-10T05:01:39;0.70;;;0.60;;
2041;SDS011;1026;51.460;7.252;2022-07-10T05:04:05;1.90;;;0.80;;
2041;SDS011;1026;51.460;7.252;2022-07-10T05:06:31;1.33;;;0.70;;
2041;SDS011;1026;51.460;7.252;2022-07-10T05:08:57;0.80;;;0.80;;
2041;SDS011;1026;51.460;7.252;2022-07-10T05:11:22;1.73;;;1.23;;
2041;SDS011;1026;51.460;7.252;2022-07-10T05:13:48;0.93;;;0.80;;
2041;SDS011;1026;51.460;7.252;2022-07-10T05:16:14;0.90;;;0.70;;
2041;SDS011;1026;51.460;7.252;2022-07-10T05:18:40;1.57;;;0.90;;
2041;SDS011;1026;51.460;7.252;2022-07-10T05:21:06;1.53;;;1.10;;
2041;SDS011;1026;51.460;7.252;2022-07-10T05:23:33;1.63;;;1.03;;
2041;SDS011;1026;51.460;7.252;2022-07-10T05:25:59;1.67;;;1.00;;
2041;SDS011;1026;51.460;7.252;2022-07-10T05:28:24;2.00;;;1.73;;
2041;SDS011;1026;51.460;7.252;2022-07-10T05:30:50;2.77;;;0.90;;
2041;SDS011;1026;51.460;7.252;2022-07-10T05:33:16;5.60;;;1.40;;
2041;SDS011;1026;51.460;7.252;2022-07-10T05:35:42;2.10;;;0.70;;
2041;SDS011;1026;51.460;7.252;2022-07-10T05:38:09;6.83;;;2.17;;
2041;SDS011;1026;51.460;7.252;2022-07-10T05:40:34;1.23;;;1.13;;
2041;SDS011;1026;51.460;7.252;2022-07-10T05:43:00;0.60;;;0.50;;
2041;SDS011;1026;51.460;7.252;2022-07-10T05:45:26;1.33;;;0.90;;
2041;SDS011;1026;51.460;7.252;2022-07-10T05:47:52;1.33;;;0.70;;
2041;SDS011;1026;51.460;7.252;2022-07-10T05:50:18;1.03;;;0.73;;
2041;SDS011;1026;51.460;7.252;2022-07-10T05:52:44;1.73;;;1.00;;
2041;SDS011;1026;51.460;7.252;2022-07-10T05:55:09;2.03;;;0.67;;
2041;SDS011;1026;51.460;7.252;2022-07-10T05:57:35;3.60;;;1.17;;
2041;SDS011;1026;51.460;7.252;2022-07-10T06:00:03;0.90;;;0.60;;
2041;SDS011;1026;51.460;7.252;2022-07-10T06:02:30;1.07;;;0.90;;
2041;SDS011;1026;51.460;7.252;2022-07-10T06:04:56;1.60;;;1.00;;
2041;SDS011;1026;51.460;7.252;2022-07-10T06:07:21;0.83;;;0.83;;
2041;SDS011;1026;51.460;7.252;2022-07-10T06:09:48;0.80;;;0.67;;
2041;SDS011;1026;51.460;7.252;2022-07-10T06:12:14;3.17;;;2.67;;
2041;SDS011;1026;51.460;7.252;2022-07-10T06:14:40;1.00;;;0.90;;
2041;SDS011;1026;51.460;7.252;2022-07-10T06:17:07;1.83;;;0.70;;
2041;SDS011;1026;51.460;7.252;2022-07-10T06:19:32;2.20;;;1.07;;
2041;SDS011;1026;51.460;7.252;2022-07-10T06:21:58;2.43;;;1.10;;
2041;SDS011;1026;51.460;7.252;2022-07-10T06:24:39;1.47;;;0.80;;
2041;SDS011;1026;51.460;7.252;2022-07-10T06:27:05;1.73;;;0.60;;
2041;SDS011;1026;51.460;7.252;2022-07-10T06:29:30;1.00;;;0.63;;
2041;SDS011;1026;51.460;7.252;2022-07-10T06:31:56;2.80;;;0.90;;
2041;SDS011;1026;51.460;7.252;2022-07-10T06:34:22;1.70;;;0.80;;
2041;SDS011;1026;51.460;7.252;2022-07-10T06:36:48;0.90;;;0.80;;
2041;SDS011;1026;51.460;7.252;2022-07-10T06:39:14;0.80;;;0.80;;
2041;SDS011;1026;51.460;7.252;2022-07-10T06:41:40;1.10;;;1.00;;
2041;SDS011;1026;51.460;7.252;2022-07-10T06:44:05;1.57;;;0.83;;
2041;SDS011;1026;51.460;7.252;2022-07-10T06:46:31;1.50;;;1.10;;
2041;SDS011;1026;51.460;7.252;2022-07-10T06:48:57;0.77;;;0.77;;
2041;SDS011;1026;51.460;7.252;2022-07-10T06:51:24;1.50;;;0.60;;
2041;SDS011;1026;51.460;7.252;2022-07-10T06:53:49;1.07;;;0.80;;
2041;SDS011;1026;51.460;7.252;2022-07-10T06:56:15;1.20;;;0.70;;
2041;SDS011;1026;51.460;7.252;2022-07-10T06:58:41;1.20;;;0.80;;
2041;SDS011;1026;51.460;7.252;2022-07-10T07:01:07;2.40;;;0.70;;
2041;SDS011;1026;51.460;7.252;2022-07-10T07:03:33;0.90;;;0.77;;
2041;SDS011;1026;51.460;7.252;2022-07-10T07:05:58;5.83;;;1.00;;
2041;SDS011;1026;51.460;7.252;2022-07-10T07:08:24;1.20;;;1.10;;
2041;SDS011;1026;51.460;7.252;2022-07-10T07:10:50;1.27;;;0.60;;
2041;SDS011;1026;51.460;7.252;2022-07-10T07:13:15;1.87;;;1.00;;
2041;SDS011;1026;51.460;7.252;2022-07-10T07:15:41;1.00;;;0.80;;
2041;SDS011;1026;51.460;7.252;2022-07-10T07:18:11;1.83;;;0.70;;
2041;SDS011;1026;51.460;7.252;2022-07-10T07:20:40;2.20;;;1.37;;
2041;SDS011;1026;51.460;7.252;2022-07-10T07:23:23;2.10;;;0.80;;
2041;SDS011;1026;51.460;7.252;2022-07-10T07:25:49;5.67;;;0.97;;
2041;SDS011;1026;51.460;7.252;2022-07-10T07:28:15;1.67;;;0.80;;
2041;SDS011;1026;51.460;7.252;2022-07-10T07:30:43;1.07;;;0.80;;
2041;SDS011;1026;51.460;7.252;2022-07-10T07:33:10;1.47;;;0.80;;
2041;SDS011;1026;51.460;7.252;2022-07-10T07:35:36;0.73;;;0.73;;
2041;SDS011;1026;51.460;7.252;2022-07-10T07:38:02;1.23;;;1.00;;
2041;SDS011;1026;51.460;7.252;2022-07-10T07:40:28;1.40;;;0.90;;
2041;SDS011;1026;51.460;7.252;2022-07-10T07:42:54;1.43;;;1.07;;
2041;SDS011;1026;51.460;7.252;2022-07-10T07:45:21;2.10;;;0.77;;
2041;SDS011;1026;51.460;7.252;2022-07-10T07:47:49;1.00;;;0.90;;
2041;SDS011;1026;51.460;7.252;2022-07-10T07:50:18;0.87;;;0.60;;
2041;SDS011;1026;51.460;7.252;2022-07-10T07:52:46;1.50;;;0.80;;
2041;SDS011;1026;51.460;7.252;2022-07-10T07:55:14;2.27;;;0.87;;
2041;SDS011;1026;51.460;7.252;2022-07-10T07:57:41;2.37;;;0.97;;
2041;SDS011;1026;51.460;7.252;2022-07-10T08:00:08;0.70;;;0.70;;
2041;SDS011;1026;51.460;7.252;2022-07-10T08:02:35;0.93;;;0.83;;
2041;SDS011;1026;51.460;7.252;2022-07-10T08:05:01;0.70;;;0.70;;
2041;SDS011;1026;51.460;7.252;2022-07-10T08:10:12;1.33;;;0.77;;
2041;SDS011;1026;51.460;7.252;2022-07-10T08:12:40;0.83;;;0.73;;
2041;SDS011;1026;51.460;7.252;2022-07-10T08:15:07;1.47;;;1.37;;
2041;SDS011;1026;51.460;7.252;2022-07-10T08:17:34;4.43;;;1.10;;
2041;SDS011;1026;51.460;7.252;2022-07-10T08:20:00;1.43;;;1.07;;
2041;SDS011;1026;51.460;7.252;2022-07-10T08:22:26;1.43;;;0.60;;
2041;SDS011;1026;51.460;7.252;2022-07-10T08:24:52;5.30;;;1.50;;
2041;SDS011;1026;51.460;7.252;2022-07-10T08:27:18;0.80;;;0.80;;
2041;SDS011;1026;51.460;7.252;2022-07-10T08:29:43;2.23;;;0.97;;
2041;SDS011;1026;51.460;7.252;2022-07-10T08:32:09;3.03;;;1.10;;
2041;SDS011;1026;51.460;7.252;2022-07-10T08:34:35;0.97;;;0.63;;
2041;SDS011;1026;51.460;7.252;2022-07-10T08:37:02;2.40;;;1.30;;
2041;SDS011;1026;51.460;7.252;2022-07-10T08:39:27;3.20;;;1.17;;
2041;SDS011;1026;51.460;7.252;2022-07-10T08:41:54;0.60;;;0.60;;
2041;SDS011;1026;51.460;7.252;2022-07-10T08:44:20;0.80;;;0.80;;
2041;SDS011;1026;51.460;7.252;2022-07-10T08:46:46;1.70;;;1.17;;
2041;SDS011;1026;51.460;7.252;2022-07-10T08:49:12;1.67;;;0.93;;
2041;SDS011;1026;51.460;7.252;2022-07-10T08:51:41;1.50;;;1.40;;
2041;SDS011;1026;51.460;7.252;2022-07-10T08:54:07;1.80;;;1.03;;
2041;SDS011;1026;51.460;7.252;2022-07-10T08:56:34;2.40;;;1.97;;
2041;SDS011;1026;51.460;7.252;2022-07-10T08:59:02;1.93;;;1.23;;
2041;SDS011;1026;51.460;7.252;2022-07-10T09:01:30;0.80;;;0.77;;
2041;SDS011;1026;51.460;7.252;2022-07-10T09:03:55;9.03;;;3.27;;
2041;SDS011;1026;51.460;7.252;2022-07-10T09:06:21;1.20;;;1.13;;
2041;SDS011;1026;51.460;7.252;2022-07-10T09:11:30;2.30;;;1.10;;
2041;SDS011;1026;51.460;7.252;2022-07-10T09:13:58;4.17;;;3.80;;
2041;SDS011;1026;51.460;7.252;2022-07-10T09:18:53;1.00;;;0.90;;
2041;SDS011;1026;51.460;7.252;2022-07-10T09:21:20;1.10;;;0.90;;
2041;SDS011;1026;51.460;7.252;2022-07-10T09:23:46;2.60;;;1.40;;
2041;SDS011;1026;51.460;7.252;2022-07-10T09:26:12;2.00;;;1.33;;
2041;SDS011;1026;51.460;7.252;2022-07-10T09:28:38;3.13;;;1.20;;
2041;SDS011;1026;51.460;7.252;2022-07-10T09:31:03;3.20;;;3.00;;
2041;SDS011;1026;51.460;7.252;2022-07-10T09:33:30;1.13;;;1.03;;
2041;SDS011;1026;51.460;7.252;2022-07-10T09:36:04;2.07;;;1.10;;
2041;SDS011;1026;51.460;7.252;2022-07-10T09:38:48;1.77;;;1.03;;
2041;SDS011;1026;51.460;7.252;2022-07-10T09:43:52;1.70;;;1.20;;
2041;SDS011;1026;51.460;7.252;2022-07-10T09:46:25;2.20;;;1.97;;
2041;SDS011;1026;51.460;7.252;2022-07-10T09:51:35;2.60;;;1.30;;
2041;SDS011;1026;51.460;7.252;2022-07-10T09:54:02;1.57;;;0.80;;
2041;SDS011;1026;51.460;7.252;2022-07-10T09:56:31;4.63;;;2.13;;
2041;SDS011;1026;51.460;7.252;2022-07-10T09:59:07;2.20;;;1.97;;
2041;SDS011;1026;51.460;7.252;2022-07-10T10:01:35;1.40;;;1.30;;
2041;SDS011;1026;51.460;7.252;2022-07-10T10:04:03;3.73;;;1.40;;
2041;SDS011;1026;51.460;7.252;2022-07-10T10:06:29;2.23;;;2.03;;
2041;SDS011;1026;51.460;7.252;2022-07-10T10:08:57;4.87;;;2.60;;
2041;SDS011;1026;51.460;7.252;2022-07-10T10:11:30;2.23;;;2.03;;
2041;SDS011;1026;51.460;7.252;2022-07-10T10:13:58;2.50;;;1.70;;
2041;SDS011;1026;51.460;7.252;2022-07-10T10:16:27;0.90;;;0.90;;
2041;SDS011;1026;51.460;7.252;2022-07-10T10:18:54;1.60;;;1.50;;
2041;SDS011;1026;51.460;7.252;2022-07-10T10:21:36;3.00;;;1.93;;
2041;SDS011;1026;51.460;7.252;2022-07-10T10:24:02;1.73;;;1.63;;
2041;SDS011;1026;51.460;7.252;2022-07-10T10:26:28;1.33;;;1.00;;
2041;SDS011;1026;51.460;7.252;2022-07-10T10:28:54;3.60;;;3.30;;
2041;SDS011;1026;51.460;7.252;2022-07-10T10:31:22;2.30;;;1.73;;
2041;SDS011;1026;51.460;7.252;2022-07-10T10:33:49;1.13;;;1.13;;
2041;SDS011;1026;51.460;7.252;2022-07-10T10:39:03;2.40;;;1.20;;
2041;SDS011;1026;51.460;7.252;2022-07-10T10:49:15;3.40;;;3.10;;
2041;SDS011;1026;51.460;7.252;2022-07-10T10:54:28;4.00;;;2.03;;
2041;SDS011;1026;51.460;7.252;2022-07-10T10:59:45;1.77;;;1.20;;
2041;SDS011;1026;51.460;7.252;2022-07-10T11:02:20;1.50;;;1.40;;
2041;SDS011;1026;51.460;7.252;2022-07-10T11:10:31;2.63;;;2.03;;
2041;SDS011;1026;51.460;7.252;2022-07-10T11:13:03;4.37;;;3.97;;
2041;SDS011;1026;51.460;7.252;2022-07-10T11:15:30;4.77;;;3.30;;
2041;SDS011;1026;51.460;7.252;2022-07-10T11:17:58;1.90;;;1.80;;
2041;SDS011;1026;51.460;7.252;2022-07-10T11:20:31;1.60;;;1.50;;
2041;SDS011;1026;51.460;7.252;2022-07-10T11:23:06;2.13;;;1.97;;
2041;SDS011;1026;51.460;7.252;2022-07-10T11:25:54;1.73;;;1.63;;
2041;SDS011;1026;51.460;7.252;2022-07-10T11:28:49;2.47;;;2.27;;
2041;SDS011;1026;51.460;7.252;2022-07-10T11:31:20;2.10;;;2.00;;
2041;SDS011;1026;51.460;7.252;2022-07-10T11:33:47;2.13;;;2.03;;
2041;SDS011;1026;51.460;7.252;2022-07-10T11:36:16;2.13;;;2.03;;
2041;SDS011;1026;51.460;7.252;2022-07-10T11:38:43;3.90;;;3.50;;
2041;SDS011;1026;51.460;7.252;2022-07-10T11:41:14;3.23;;;2.97;;
2041;SDS011;1026;51.460;7.252;2022-07-10T11:43:49;2.97;;;2.70;;
2041;SDS011;1026;51.460;7.252;2022-07-10T11:46:31;5.10;;;4.43;;
2041;SDS011;1026;51.460;7.252;2022-07-10T11:48:58;9.10;;;6.00;;
2041;SDS011;1026;51.460;7.252;2022-07-10T11:56:39;5.63;;;5.20;;
2041;SDS011;1026;51.460;7.252;2022-07-10T11:59:07;3.63;;;2.37;;
2041;SDS011;1026;51.460;7.252;2022-07-10T12:01:40;2.87;;;2.67;;
2041;SDS011;1026;51.460;7.252;2022-07-10T12:04:08;2.67;;;2.47;;
2041;SDS011;1026;51.460;7.252;2022-07-10T12:06:36;3.37;;;3.10;;
2041;SDS011;1026;51.460;7.252;2022-07-10T12:11:31;2.63;;;2.43;;
2041;SDS011;1026;51.460;7.252;2022-07-10T12:16:40;2.77;;;2.57;;
2041;SDS011;1026;51.460;7.252;2022-07-10T12:19:08;2.80;;;2.60;;
2041;SDS011;1026;51.460;7.252;2022-07-10T12:21:35;3.20;;;3.00;;
2041;SDS011;1026;51.460;7.252;2022-07-10T12:24:01;3.00;;;2.80;;
2041;SDS011;1026;51.460;7.252;2022-07-10T12:26:31;2.20;;;2.07;;
2041;SDS011;1026;51.460;7.252;2022-07-10T12:28:59;2.60;;;2.40;;
2041;SDS011;1026;51.460;7.252;2022-07-10T12:31:26;2.73;;;2.53;;
2041;SDS011;1026;51.460;7.252;2022-07-10T12:33:58;2.57;;;2.40;;
2041;SDS011;1026;51.460;7.252;2022-07-10T12:36:40;2.43;;;2.23;;
2041;SDS011;1026;51.460;7.252;2022-07-10T12:39:15;2.40;;;2.20;;
2041;SDS011;1026;51.460;7.252;2022-07-10T12:47:00;2.57;;;2.37;;
2041;SDS011;1026;51.460;7.252;2022-07-10T12:49:27;2.23;;;2.10;;
2041;SDS011;1026;51.460;7.252;2022-07-10T12:51:53;2.00;;;1.90;;
2041;SDS011;1026;51.460;7.252;2022-07-10T12:57:01;2.33;;;2.23;;
2041;SDS011;1026;51.460;7.252;2022-07-10T12:59:31;2.33;;;2.13;;
2041;SDS011;1026;51.460;7.252;2022-07-10T13:01:59;2.67;;;2.47;;
2041;SDS011;1026;51.460;7.252;2022-07-10T13:04:40;2.77;;;2.40;;
2041;SDS011;1026;51.460;7.252;2022-07-10T13:07:16;1.83;;;1.73;;
2041;SDS011;1026;51.460;7.252;2022-07-10T13:09:42;2.70;;;2.50;;
2041;SDS011;1026;51.460;7.252;2022-07-10T13:12:09;2.00;;;1.90;;
2041;SDS011;1026;51.460;7.252;2022-07-10T13:14:35;1.90;;;1.80;;
2041;SDS011;1026;51.460;7.252;2022-07-10T13:17:01;1.60;;;1.50;;
2041;SDS011;1026;51.460;7.252;2022-07-10T13:19:27;1.97;;;1.87;;
2041;SDS011;1026;51.460;7.252;2022-07-10T13:21:52;4.30;;;1.90;;
2041;SDS011;1026;51.460;7.252;2022-07-10T13:24:18;1.63;;;1.53;;
2041;SDS011;1026;51.460;7.252;2022-07-10T13:26:44;1.90;;;1.80;;
2041;SDS011;1026;51.460;7.252;2022-07-10T13:29:10;1.80;;;1.70;;
2041;SDS011;1026;51.460;7.252;2022-07-10T13:31:51;2.43;;;2.00;;
2041;SDS011;1026;51.460;7.252;2022-07-10T13:34:17;2.43;;;2.03;;
2041;SDS011;1026;51.460;7.252;2022-07-10T13:36:42;2.80;;;2.50;;
2041;SDS011;1026;51.460;7.252;2022-07-10T13:39:08;2.30;;;2.20;;
2041;SDS011;1026;51.460;7.252;2022-07-10T13:41:34;2.27;;;2.13;;
2041;SDS011;1026;51.460;7.252;2022-07-10T13:43:59;2.73;;;2.53;;
2041;SDS011;1026;51.460;7.252;2022-07-10T13:46:26;2.47;;;2.03;;
2041;SDS011;1026;51.460;7.252;2022-07-10T13:48:52;2.50;;;2.30;;
2041;SDS011;1026;51.460;7.252;2022-07-10T13:51:18;3.57;;;2.27;;
2041;SDS011;1026;51.460;7.252;2022-07-10T13:53:43;1.70;;;1.43;;
2041;SDS011;1026;51.460;7.252;2022-07-10T13:56:09;2.33;;;1.93;;
2041;SDS011;1026;51.460;7.252;2022-07-10T13:58:35;1.80;;;1.70;;
2041;SDS011;1026;51.460;7.252;2022-07-10T14:01:01;2.30;;;1.87;;
2041;SDS011;1026;51.460;7.252;2022-07-10T14:03:29;1.63;;;1.53;;
2041;SDS011;1026;51.460;7.252;2022-07-10T14:05:56;2.70;;;1.70;;
2041;SDS011;1026;51.460;7.252;2022-07-10T14:08:22;1.60;;;1.30;;
2041;SDS011;1026;51.460;7.252;2022-07-10T14:10:48;1.27;;;1.20;;
2041;SDS011;1026;51.460;7.252;2022-07-10T14:13:14;2.03;;;1.93;;
2041;SDS011;1026;51.460;7.252;2022-07-10T14:15:39;2.50;;;2.00;;
2041;SDS011;1026;51.460;7.252;2022-07-10T14:18:06;2.00;;;1.80;;
2041;SDS011;1026;51.460;7.252;2022-07-10T14:20:31;2.83;;;1.50;;
2041;SDS011;1026;51.460;7.252;2022-07-10T14:23:17;2.10;;;1.77;;
2041;SDS011;1026;51.460;7.252;2022-07-10T14:25:43;1.97;;;1.87;;
2041;SDS011;1026;51.460;7.252;2022-07-10T14:28:09;1.70;;;1.60;;
2041;SDS011;1026;51.460;7.252;2022-07-10T14:30:35;2.43;;;1.57;;
2041;SDS011;1026;51.460;7.252;2022-07-10T14:33:01;3.90;;;1.90;;
2041;SDS011;1026;51.460;7.252;2022-07-10T14:35:26;2.63;;;1.57;;
2041;SDS011;1026;51.460;7.252;2022-07-10T14:37:52;1.50;;;1.40;;
2041;SDS011;1026;51.460;7.252;2022-07-10T14:40:18;3.47;;;2.53;;
2041;SDS011;1026;51.460;7.252;2022-07-10T14:42:43;1.60;;;1.50;;
2041;SDS011;1026;51.460;7.252;2022-07-10T14:45:09;1.40;;;1.30;;
2041;SDS011;1026;51.460;7.252;2022-07-10T14:47:35;1.87;;;1.77;;
2041;SDS011;1026;51.460;7.252;2022-07-10T14:50:01;2.10;;;2.00;;
2041;SDS011;1026;51.460;7.252;2022-07-10T14:52:26;2.30;;;2.10;;
2041;SDS011;1026;51.460;7.252;2022-07-10T14:54:55;1.87;;;1.63;;
2041;SDS011;1026;51.460;7.252;2022-07-10T14:57:20;2.30;;;1.77;;
2041;SDS011;1026;51.460;7.252;2022-07-10T14:59:46;1.50;;;1.40;;
2041;SDS011;1026;51.460;7.252;2022-07-10T15:02:11;2.97;;;2.37;;
2041;SDS011;1026;51.460;7.252;2022-07-10T15:04:37;5.10;;;2.30;;
2041;SDS011;1026;51.460;7.252;2022-07-10T15:07:03;2.20;;;1.30;;
2041;SDS011;1026;51.460;7.252;2022-07-10T15:09:29;2.40;;;2.20;;
2041;SDS011;1026;51.460;7.252;2022-07-10T15:11:55;1.93;;;1.83;;
2041;SDS011;1026;51.460;7.252;2022-07-10T15:14:21;1.67;;;1.57;;
2041;SDS011;1026;51.460;7.252;2022-07-10T15:16:47;1.77;;;1.67;;
2041;SDS011;1026;51.460;7.252;2022-07-10T15:19:13;2.00;;;1.90;;
2041;SDS011;1026;51.460;7.252;2022-07-10T15:21:38;1.50;;;1.40;;
2041;SDS011;1026;51.460;7.252;2022-07-10T15:24:04;1.70;;;1.60;;
2041;SDS011;1026;51.460;7.252;2022-07-10T15:26:30;2.20;;;1.83;;
2041;SDS011;1026;51.460;7.252;2022-07-10T15:28:56;4.90;;;2.30;;
2041;SDS011;1026;51.460;7.252;2022-07-10T15:31:23;2.87;;;2.57;;
2041;SDS011;1026;51.460;7.252;2022-07-10T15:33:49;2.50;;;2.00;;
2041;SDS011;1026;51.460;7.252;2022-07-10T15:36:15;2.77;;;1.90;;
2041;SDS011;1026;51.460;7.252;2022-07-10T15:38:41;2.40;;;1.90;;
2041;SDS011;1026;51.460;7.252;2022-07-10T15:41:07;2.53;;;2.33;;
2041;SDS011;1026;51.460;7.252;2022-07-10T15:43:33;1.77;;;1.67;;
2041;SDS011;1026;51.460;7.252;2022-07-10T15:45:58;2.13;;;1.97;;
2041;SDS011;1026;51.460;7.252;2022-07-10T15:48:24;1.73;;;1.63;;
2041;SDS011;1026;51.460;7.252;2022-07-10T15:50:50;4.27;;;2.77;;
2041;SDS011;1026;51.460;7.252;2022-07-10T15:53:15;1.70;;;1.50;;
2041;SDS011;1026;51.460;7.252;2022-07-10T15:55:41;1.40;;;1.30;;
2041;SDS011;1026;51.460;7.252;2022-07-10T15:58:07;1.50;;;1.40;;
2041;SDS011;1026;51.460;7.252;2022-07-10T16:00:33;1.50;;;1.40;;
2041;SDS011;1026;51.460;7.252;2022-07-10T16:02:58;1.00;;;1.00;;
2041;SDS011;1026;51.460;7.252;2022-07-10T16:05:25;2.70;;;1.70;;
2041;SDS011;1026;51.460;7.252;2022-07-10T16:07:51;1.50;;;1.40;;